createdAt,value
2023-05-20T00:02:10.017Z,11.50
2023-05-20T00:04:36.866Z,11.50
2023-05-20T00:07:04.287Z,11.40
2023-05-20T00:09:31.109Z,11.40
2023-05-20T00:11:57.882Z,11.40
2023-05-20T00:14:24.870Z,11.40
2023-05-20T00:16:51.871Z,11.40
2023-05-20T00:19:18.867Z,11.30
2023-05-20T00:21:45.750Z,11.30
2023-05-20T00:24:12.665Z,11.30
2023-05-20T00:26:39.469Z,11.30
2023-05-20T00:29:06.417Z,11.30
2023-05-20T00:31:33.283Z,11.30
2023-05-20T00:34:00.115Z,11.20
2023-05-20T00:36:27.627Z,11.20
2023-05-20T00:38:54.481Z,11.20
2023-05-20T00:41:21.799Z,11.20
2023-05-20T00:43:48.654Z,10.90
2023-05-20T00:46:15.608Z,11.20
2023-05-20T00:48:43.948Z,11.20
2023-05-20T00:51:13.149Z,11.10
2023-05-20T00:53:40.484Z,11.10
2023-05-20T00:56:09.036Z,11.20
2023-05-20T00:58:38.044Z,11.10
2023-05-20T01:01:05.363Z,11.20
2023-05-20T01:03:32.825Z,11.20
2023-05-20T01:05:59.985Z,11.20
2023-05-20T01:08:27.341Z,11.10
2023-05-20T01:11:04.599Z,11.10
2023-05-20T01:13:39.155Z,11.00
2023-05-20T01:16:08.815Z,11.00
2023-05-20T01:18:36.416Z,10.90
2023-05-20T01:21:04.934Z,10.90
2023-05-20T01:23:34.602Z,10.90
2023-05-20T01:26:01.481Z,10.60
2023-05-20T01:28:30.343Z,10.50
2023-05-20T01:31:00.814Z,10.70
2023-05-20T01:33:29.567Z,10.60
2023-05-20T01:35:57.659Z,10.60
2023-05-20T01:38:25.038Z,10.30
2023-05-20T01:40:53.690Z,10.40
2023-05-20T01:43:21.508Z,10.40
2023-05-20T01:45:48.326Z,10.30
2023-05-20T01:48:15.115Z,10.20
2023-05-20T01:50:42.453Z,10.10
2023-05-20T01:53:09.762Z,9.70
2023-05-20T01:55:36.853Z,10.10
2023-05-20T01:58:03.827Z,9.90
2023-05-20T02:00:32.880Z,9.80
2023-05-20T02:02:59.845Z,9.90
2023-05-20T02:05:26.650Z,9.90
2023-05-20T02:07:53.582Z,9.90
2023-05-20T02:10:20.746Z,9.80
2023-05-20T02:12:49.202Z,9.80
2023-05-20T02:15:16.257Z,9.90
2023-05-20T02:17:43.810Z,10.20
2023-05-20T02:20:11.780Z,9.70
2023-05-20T02:22:38.672Z,9.60
2023-05-20T02:25:06.142Z,9.60
2023-05-20T02:27:33.015Z,9.50
2023-05-20T02:30:00.914Z,9.50
2023-05-20T02:32:29.165Z,9.50
2023-05-20T02:34:56.400Z,9.30
2023-05-20T02:37:23.314Z,9.50
2023-05-20T02:39:50.290Z,9.50
2023-05-20T02:42:17.161Z,9.40
2023-05-20T02:44:44.075Z,9.50
2023-05-20T02:47:11.046Z,9.20
2023-05-20T02:49:38.009Z,9.30
2023-05-20T02:52:05.122Z,9.20
2023-05-20T02:54:32.461Z,9.30
2023-05-20T02:56:59.471Z,9.70
2023-05-20T02:59:26.705Z,9.30
2023-05-20T03:01:53.852Z,9.20
2023-05-20T03:04:21.798Z,9.30
2023-05-20T03:06:48.898Z,9.20
2023-05-20T03:09:15.807Z,9.30
2023-05-20T03:11:42.723Z,9.10
2023-05-20T03:14:09.618Z,9.20
2023-05-20T03:16:36.478Z,9.30
2023-05-20T03:19:03.619Z,9.10
2023-05-20T03:21:30.690Z,9.20
2023-05-20T03:23:57.582Z,9.20
2023-05-20T03:26:25.659Z,9.10
2023-05-20T03:28:52.720Z,9.20
2023-05-20T03:31:19.556Z,9.20
2023-05-20T03:33:46.615Z,9.20
2023-05-20T03:36:13.788Z,9.30
2023-05-20T03:38:40.835Z,9.30
2023-05-20T03:41:07.692Z,9.30
2023-05-20T03:43:34.564Z,9.30
2023-05-20T03:46:01.431Z,9.40
2023-05-20T03:48:28.327Z,9.40
2023-05-20T03:50:55.457Z,9.50
2023-05-20T03:53:22.494Z,9.60
2023-05-20T03:55:49.390Z,9.50
2023-05-20T03:58:16.698Z,9.70
2023-05-20T04:00:43.727Z,9.60
2023-05-20T04:03:11.665Z,9.20
2023-05-20T04:05:38.755Z,9.90
2023-05-20T04:08:05.709Z,10.00
2023-05-20T04:10:32.882Z,10.00
2023-05-20T04:13:00.182Z,9.90
2023-05-20T04:15:29.791Z,10.10
2023-05-20T04:17:57.005Z,10.00
2023-05-20T04:20:24.569Z,10.00
2023-05-20T04:22:52.470Z,10.20
2023-05-20T04:25:19.956Z,10.20
2023-05-20T04:27:46.895Z,10.10
2023-05-20T04:30:16.829Z,10.30
2023-05-20T04:32:43.869Z,10.30
2023-05-20T04:35:13.907Z,10.30
2023-05-20T04:37:42.500Z,10.50
2023-05-20T04:40:10.751Z,10.50
2023-05-20T04:42:37.878Z,10.40
2023-05-20T04:45:05.968Z,10.40
2023-05-20T04:47:39.009Z,10.50
2023-05-20T04:50:11.000Z,10.60
2023-05-20T04:52:39.665Z,10.60
2023-05-20T04:55:10.499Z,10.60
2023-05-20T04:57:42.282Z,10.80
2023-05-20T05:00:11.244Z,10.80
2023-05-20T05:02:39.104Z,10.90
2023-05-20T05:05:06.785Z,11.00
2023-05-20T05:07:33.857Z,11.00
2023-05-20T05:10:01.225Z,10.70
2023-05-20T05:12:28.311Z,11.00
2023-05-20T05:14:55.133Z,10.90
2023-05-20T05:17:21.926Z,11.00
2023-05-20T05:19:48.861Z,11.20
2023-05-20T05:22:15.787Z,11.30
2023-05-20T05:24:42.759Z,11.50
2023-05-20T05:27:09.564Z,11.50
2023-05-20T05:29:36.790Z,11.50
2023-05-20T05:32:03.927Z,11.50
2023-05-20T05:34:30.818Z,11.60
2023-05-20T05:36:57.581Z,11.70
2023-05-20T05:39:24.420Z,11.90
2023-05-20T05:41:51.221Z,12.00
2023-05-20T05:44:17.997Z,12.10
2023-05-20T05:46:44.865Z,12.20
2023-05-20T05:49:11.746Z,12.20
2023-05-20T05:51:39.182Z,12.20
2023-05-20T05:54:06.047Z,12.20
2023-05-20T05:56:32.893Z,12.40
2023-05-20T05:58:59.716Z,12.60
2023-05-20T06:01:26.688Z,12.80
2023-05-20T06:03:54.011Z,12.80
2023-05-20T06:06:21.066Z,13.00
2023-05-20T06:08:47.900Z,13.20
2023-05-20T06:11:14.704Z,13.30
2023-05-20T06:13:41.584Z,13.50
2023-05-20T06:16:08.508Z,13.60
2023-05-20T06:18:35.369Z,13.90
2023-05-20T06:21:02.909Z,13.90
2023-05-20T06:23:29.838Z,13.90
2023-05-20T06:26:00.804Z,14.10
2023-05-20T06:28:28.062Z,14.40
2023-05-20T06:30:55.796Z,14.60
2023-05-20T06:33:28.546Z,14.80
2023-05-20T06:35:56.733Z,15.00
2023-05-20T06:38:23.597Z,15.30
2023-05-20T06:40:50.649Z,15.50
2023-05-20T06:43:17.844Z,15.70
2023-05-20T06:45:45.164Z,15.90
2023-05-20T06:48:12.093Z,16.00
2023-05-20T06:50:38.978Z,16.10
2023-05-20T06:53:05.732Z,16.50
2023-05-20T06:55:32.797Z,16.60
2023-05-20T06:57:59.973Z,16.50
2023-05-20T07:00:26.763Z,16.80
2023-05-20T07:02:53.613Z,17.10
2023-05-20T07:05:20.740Z,17.30
2023-05-20T07:07:47.519Z,17.50
2023-05-20T07:10:16.715Z,17.60
2023-05-20T07:12:43.469Z,17.50
2023-05-20T07:15:10.691Z,17.90
2023-05-20T07:17:37.547Z,18.20
2023-05-20T07:20:04.844Z,18.50
2023-05-20T07:22:32.744Z,19.00
2023-05-20T07:25:01.184Z,18.90
2023-05-20T07:27:27.948Z,18.60
2023-05-20T07:29:56.105Z,18.50
2023-05-20T07:32:22.891Z,18.30
2023-05-20T07:34:49.785Z,17.90
2023-05-20T07:37:16.667Z,17.80
2023-05-20T07:39:43.494Z,17.70
2023-05-20T07:42:10.636Z,17.60
2023-05-20T07:44:37.471Z,17.50
2023-05-20T07:47:04.374Z,17.40
2023-05-20T07:49:31.343Z,17.60
2023-05-20T07:51:58.106Z,17.80
2023-05-20T07:54:24.961Z,17.90
2023-05-20T07:56:51.730Z,17.80
2023-05-20T07:59:18.572Z,17.70
2023-05-20T08:01:45.510Z,17.70
2023-05-20T08:04:12.578Z,17.70
2023-05-20T08:06:41.305Z,18.00
2023-05-20T08:09:08.105Z,18.20
2023-05-20T08:11:34.914Z,18.40
2023-05-20T08:14:02.517Z,18.60
2023-05-20T08:16:29.452Z,18.70
2023-05-20T08:18:56.282Z,18.60
2023-05-20T08:21:23.601Z,18.50
2023-05-20T08:23:50.556Z,18.50
2023-05-20T08:26:17.313Z,18.50
2023-05-20T08:28:44.197Z,19.00
2023-05-20T08:31:11.057Z,20.00
2023-05-20T08:33:37.916Z,21.00
2023-05-20T08:36:04.767Z,21.80
2023-05-20T08:38:31.555Z,22.40
2023-05-20T08:40:58.402Z,22.60
2023-05-20T08:43:26.513Z,23.30
2023-05-20T08:45:53.440Z,24.10
2023-05-20T08:48:23.343Z,24.30
2023-05-20T08:50:52.429Z,24.90
2023-05-20T08:56:01.002Z,25.80
2023-05-20T08:58:30.075Z,26.30
2023-05-20T09:00:56.944Z,26.30
2023-05-20T09:03:25.666Z,26.50
2023-05-20T09:05:53.632Z,26.20
2023-05-20T09:08:28.049Z,26.50
2023-05-20T09:10:54.998Z,26.90
2023-05-20T09:13:23.841Z,26.50
2023-05-20T09:15:51.074Z,26.50
2023-05-20T09:18:18.112Z,27.10
2023-05-20T09:20:48.102Z,26.80
2023-05-20T09:23:14.909Z,27.60
2023-05-20T09:25:42.184Z,28.60
2023-05-20T09:28:09.369Z,29.50
2023-05-20T09:30:36.380Z,29.20
2023-05-20T09:33:06.016Z,29.40
2023-05-20T09:35:37.614Z,29.70
2023-05-20T09:38:07.703Z,29.50
2023-05-20T09:40:37.800Z,29.70
2023-05-20T09:43:08.019Z,29.60
2023-05-20T09:45:35.732Z,29.90
2023-05-20T09:48:03.924Z,29.90
2023-05-20T09:50:32.136Z,30.10
2023-05-20T09:53:03.143Z,30.00
2023-05-20T09:55:30.858Z,31.60
2023-05-20T09:58:01.846Z,31.90
2023-05-20T10:00:28.968Z,31.10
2023-05-20T10:02:57.325Z,29.50
2023-05-20T10:05:29.666Z,28.70
2023-05-20T10:08:12.635Z,28.70
2023-05-20T10:11:05.240Z,27.40
2023-05-20T10:13:40.497Z,27.40
2023-05-20T10:16:14.129Z,28.50
2023-05-20T10:18:58.749Z,28.60
2023-05-20T10:21:26.114Z,29.20
2023-05-20T10:23:53.020Z,29.80
2023-05-20T10:26:21.875Z,30.20
2023-05-20T10:28:49.656Z,30.50
2023-05-20T10:31:21.697Z,30.40
2023-05-20T10:33:49.229Z,30.00
2023-05-20T10:36:26.317Z,30.60
2023-05-20T10:38:54.938Z,30.80
2023-05-20T10:41:24.597Z,30.40
2023-05-20T10:44:07.193Z,31.20
2023-05-20T10:46:48.348Z,31.20
2023-05-20T10:49:26.828Z,31.00
2023-05-20T10:51:54.800Z,31.30
2023-05-20T10:54:23.262Z,30.90
2023-05-20T10:56:53.854Z,30.40
2023-05-20T10:59:21.958Z,30.50
2023-05-20T11:01:49.538Z,31.30
2023-05-20T11:04:17.561Z,31.80
2023-05-20T11:06:54.031Z,31.20
2023-05-20T11:09:21.500Z,30.10
2023-05-20T11:11:49.197Z,29.20
2023-05-20T11:14:17.297Z,28.20
2023-05-20T11:16:44.811Z,27.90
2023-05-20T11:19:20.138Z,27.90
2023-05-20T11:21:48.109Z,28.70
2023-05-20T11:24:22.098Z,29.00
2023-05-20T11:26:48.919Z,28.90
2023-05-20T11:29:16.179Z,28.50
2023-05-20T11:31:43.471Z,28.00
2023-05-20T11:34:10.295Z,28.20
2023-05-20T11:36:41.942Z,27.70
2023-05-20T11:39:11.676Z,29.10
2023-05-20T11:41:39.141Z,30.30
2023-05-20T11:44:11.878Z,30.30
2023-05-20T11:46:43.463Z,30.50
2023-05-20T11:49:10.529Z,30.60
2023-05-20T11:51:38.728Z,30.60
2023-05-20T11:54:07.216Z,30.10
2023-05-20T11:56:37.145Z,30.10
2023-05-20T11:59:06.620Z,29.80
2023-05-20T12:01:41.073Z,28.90
2023-05-20T12:04:09.040Z,27.80
2023-05-20T12:06:37.680Z,27.40
2023-05-20T12:09:07.221Z,26.90
2023-05-20T12:11:37.328Z,27.40
2023-05-20T12:14:04.687Z,28.00
2023-05-20T12:16:33.086Z,27.90
2023-05-20T12:19:00.618Z,29.70
2023-05-20T12:21:29.632Z,29.90
2023-05-20T12:23:58.079Z,29.80
2023-05-20T12:26:26.814Z,29.70
2023-05-20T12:28:56.369Z,30.60
2023-05-20T12:31:23.489Z,31.10
2023-05-20T12:33:50.733Z,31.40
2023-05-20T12:36:17.629Z,31.60
2023-05-20T12:38:44.531Z,30.80
2023-05-20T12:41:11.910Z,30.90
2023-05-20T12:43:38.776Z,30.20
2023-05-20T12:46:06.216Z,29.60
2023-05-20T12:48:33.120Z,29.30
2023-05-20T12:51:00.520Z,29.50
2023-05-20T12:53:27.486Z,29.90
2023-05-20T12:55:54.483Z,29.90
2023-05-20T12:58:21.340Z,29.00
2023-05-20T13:00:48.281Z,29.00
2023-05-20T13:03:15.311Z,29.20
2023-05-20T13:05:42.202Z,29.40
2023-05-20T13:08:10.174Z,29.70
2023-05-20T13:10:37.631Z,30.50
2023-05-20T13:13:04.818Z,29.90
2023-05-20T13:15:33.353Z,28.90
2023-05-20T13:18:01.615Z,28.80
2023-05-20T13:20:30.079Z,28.40
2023-05-20T13:22:56.926Z,28.30
2023-05-20T13:25:23.954Z,27.50
2023-05-20T13:27:50.931Z,27.20
2023-05-20T13:30:17.819Z,26.80
2023-05-20T13:32:44.820Z,26.40
2023-05-20T13:35:13.033Z,26.10
2023-05-20T13:37:39.913Z,26.00
2023-05-20T13:40:07.468Z,26.20
2023-05-20T13:42:34.568Z,27.00
2023-05-20T13:45:01.400Z,27.60
2023-05-20T13:47:28.380Z,28.20
2023-05-20T13:49:55.321Z,29.10
2023-05-20T13:52:22.341Z,29.30
2023-05-20T13:54:49.137Z,29.00
2023-05-20T13:57:16.223Z,28.40
2023-05-20T13:59:43.099Z,28.50
2023-05-20T14:02:10.215Z,28.20
2023-05-20T14:04:39.764Z,27.90
2023-05-20T14:07:09.390Z,28.20
2023-05-20T14:09:37.001Z,27.80
2023-05-20T14:12:04.511Z,27.80
2023-05-20T14:14:31.370Z,27.70
2023-05-20T14:16:58.292Z,27.40
2023-05-20T14:19:26.927Z,27.40
2023-05-20T14:21:53.929Z,27.20
2023-05-20T14:24:23.460Z,27.00
2023-05-20T14:26:50.749Z,26.70
2023-05-20T14:29:17.643Z,26.50
2023-05-20T14:31:44.734Z,26.00
2023-05-20T14:34:11.664Z,25.90
2023-05-20T14:36:39.267Z,25.80
2023-05-20T14:39:06.097Z,25.50
2023-05-20T14:41:32.974Z,25.40
2023-05-20T14:43:59.852Z,25.20
2023-05-20T14:46:26.956Z,25.20
2023-05-20T14:48:53.854Z,25.10
2023-05-20T14:51:20.761Z,24.90
2023-05-20T14:53:47.551Z,24.80
2023-05-20T14:56:14.405Z,24.70
2023-05-20T14:58:41.287Z,24.70
2023-05-20T15:01:08.223Z,24.80
2023-05-20T15:03:35.119Z,24.90
2023-05-20T15:06:02.159Z,24.80
2023-05-20T15:08:28.934Z,24.90
2023-05-20T15:10:55.894Z,24.90
2023-05-20T15:13:22.759Z,24.90
2023-05-20T15:15:49.602Z,25.00
2023-05-20T15:18:16.807Z,25.10
2023-05-20T15:20:44.148Z,25.00
2023-05-20T15:23:11.337Z,24.80
2023-05-20T15:25:38.204Z,24.80
2023-05-20T15:28:05.199Z,24.90
2023-05-20T15:30:32.089Z,25.00
2023-05-20T15:32:59.220Z,25.30
2023-05-20T15:35:26.069Z,25.30
2023-05-20T15:37:53.103Z,25.40
2023-05-20T15:40:20.018Z,25.30
2023-05-20T15:42:47.445Z,25.10
2023-05-20T15:45:14.337Z,24.90
2023-05-20T15:47:43.253Z,24.90
2023-05-20T15:50:11.394Z,24.90
2023-05-20T15:52:38.687Z,24.80
2023-05-20T15:55:06.290Z,24.80
2023-05-20T15:57:33.135Z,24.90
2023-05-20T16:00:00.237Z,25.00
2023-05-20T16:02:27.408Z,25.10
2023-05-20T16:04:54.444Z,25.10
2023-05-20T16:07:21.257Z,25.20
2023-05-20T16:09:48.053Z,25.10
2023-05-20T16:12:16.918Z,25.30
2023-05-20T16:14:44.762Z,25.30
2023-05-20T16:17:12.061Z,25.50
2023-05-20T16:19:39.083Z,25.50
2023-05-20T16:22:05.914Z,25.60
2023-05-20T16:24:32.852Z,25.70
2023-05-20T16:26:59.818Z,25.80
2023-05-20T16:29:26.831Z,25.80
2023-05-20T16:31:53.861Z,25.70
2023-05-20T16:34:20.727Z,25.60
2023-05-20T16:36:47.625Z,25.60
2023-05-20T16:39:15.167Z,25.50
2023-05-20T16:41:42.948Z,25.40
2023-05-20T16:44:10.445Z,25.30
2023-05-20T16:46:37.299Z,25.10
2023-05-20T16:49:04.135Z,25.00
2023-05-20T16:51:31.408Z,25.00
2023-05-20T16:53:58.334Z,24.90
2023-05-20T16:56:25.197Z,24.90
2023-05-20T16:58:53.212Z,24.80
2023-05-20T17:01:21.577Z,24.70
2023-05-20T17:03:48.870Z,24.60
2023-05-20T17:06:15.935Z,24.60
2023-05-20T17:08:43.918Z,24.50
2023-05-20T17:11:11.352Z,24.40
2023-05-20T17:13:38.339Z,24.30
2023-05-20T17:16:05.993Z,24.20
2023-05-20T17:18:33.671Z,24.10
2023-05-20T17:21:00.717Z,24.00
2023-05-20T17:23:27.629Z,24.00
2023-05-20T17:25:54.414Z,24.00
2023-05-20T17:28:21.421Z,23.80
2023-05-20T17:30:48.246Z,23.70
2023-05-20T17:33:15.246Z,23.50
2023-05-20T17:35:42.236Z,23.40
2023-05-20T17:38:09.069Z,23.30
2023-05-20T17:40:36.514Z,23.30
2023-05-20T17:43:03.522Z,23.20
2023-05-20T17:45:30.705Z,23.10
2023-05-20T17:47:57.789Z,23.00
2023-05-20T17:50:24.751Z,23.00
2023-05-20T17:52:51.605Z,23.00
2023-05-20T17:55:18.467Z,22.90
2023-05-20T17:57:45.389Z,22.80
2023-05-20T18:00:13.178Z,22.70
2023-05-20T18:02:47.205Z,22.70
2023-05-20T18:05:16.893Z,22.50
2023-05-20T18:07:43.824Z,22.40
2023-05-20T18:10:10.898Z,22.30
2023-05-20T18:12:37.913Z,22.30
2023-05-20T18:15:06.303Z,22.10
2023-05-20T18:17:33.118Z,22.10
2023-05-20T18:20:00.098Z,22.00
2023-05-20T18:22:27.104Z,21.90
2023-05-20T18:24:53.942Z,21.80
2023-05-20T18:27:21.075Z,21.70
2023-05-20T18:29:49.432Z,21.60
2023-05-20T18:32:16.412Z,21.50
2023-05-20T18:34:43.243Z,21.50
2023-05-20T18:37:10.696Z,21.30
2023-05-20T18:39:37.763Z,21.30
2023-05-20T18:42:04.890Z,21.20
2023-05-20T18:44:32.889Z,21.10
2023-05-20T18:46:59.715Z,21.00
2023-05-20T18:49:26.560Z,20.80
2023-05-20T18:51:53.472Z,20.80
2023-05-20T18:54:20.448Z,20.70
2023-05-20T18:56:48.556Z,20.60
2023-05-20T18:59:15.633Z,20.50
2023-05-20T19:01:42.552Z,20.40
2023-05-20T19:04:09.508Z,20.30
2023-05-20T19:06:37.459Z,20.30
2023-05-20T19:09:04.997Z,20.10
2023-05-20T19:11:32.115Z,20.00
2023-05-20T19:13:59.442Z,19.90
2023-05-20T19:16:26.810Z,19.80
2023-05-20T19:18:53.771Z,19.80
2023-05-20T19:21:20.832Z,19.70
2023-05-20T19:23:48.751Z,19.60
2023-05-20T19:26:15.883Z,19.50
2023-05-20T19:28:42.765Z,19.40
2023-05-20T19:31:09.732Z,19.30
2023-05-20T19:33:37.054Z,19.30
2023-05-20T19:36:04.142Z,19.20
2023-05-20T19:38:31.092Z,19.20
2023-05-20T19:40:58.059Z,19.10
2023-05-20T19:43:25.032Z,19.00
2023-05-20T19:45:51.997Z,19.00
2023-05-20T19:48:20.703Z,18.90
2023-05-20T19:50:49.148Z,18.80
2023-05-20T19:53:16.142Z,18.70
2023-05-20T19:55:43.575Z,18.80
2023-05-20T19:58:10.691Z,18.60
2023-05-20T20:00:38.370Z,18.50
2023-05-20T20:03:07.271Z,18.50
2023-05-20T20:05:34.583Z,18.40
2023-05-20T20:08:01.859Z,18.30
2023-05-20T20:10:30.830Z,18.20
2023-05-20T20:12:57.686Z,18.10
2023-05-20T20:15:25.174Z,18.00
2023-05-20T20:17:52.567Z,18.00
2023-05-20T20:20:19.682Z,17.90
2023-05-20T20:22:46.562Z,17.90
2023-05-20T20:25:13.955Z,17.70
2023-05-20T20:27:43.999Z,17.60
2023-05-20T20:30:13.117Z,17.50
2023-05-20T20:32:40.726Z,17.40
2023-05-20T20:35:08.149Z,17.30
2023-05-20T20:37:36.117Z,17.20
2023-05-20T20:40:04.089Z,17.10
2023-05-20T20:42:30.954Z,17.10
2023-05-20T20:44:57.829Z,17.00
2023-05-20T20:47:29.358Z,17.00
2023-05-20T20:49:56.916Z,16.80
2023-05-20T20:52:24.035Z,16.70
2023-05-20T20:54:50.954Z,16.60
2023-05-20T20:57:17.817Z,16.40
2023-05-20T20:59:48.090Z,16.40
2023-05-20T21:02:16.013Z,16.30
2023-05-20T21:04:44.095Z,16.30
2023-05-20T21:07:12.134Z,16.20
2023-05-20T21:09:39.041Z,16.10
2023-05-20T21:12:06.877Z,16.10
2023-05-20T21:14:33.959Z,16.10
2023-05-20T21:17:01.133Z,16.00
2023-05-20T21:19:28.550Z,16.00
2023-05-20T21:21:55.875Z,16.00
2023-05-20T21:24:22.787Z,16.00
2023-05-20T21:26:49.652Z,16.00
2023-05-20T21:29:16.569Z,15.90
2023-05-20T21:31:43.468Z,15.90
2023-05-20T21:34:10.403Z,15.90
2023-05-20T21:36:37.334Z,15.80
2023-05-20T21:39:04.420Z,15.80
2023-05-20T21:41:31.333Z,15.80
2023-05-20T21:43:58.320Z,15.70
2023-05-20T21:46:25.174Z,15.50
2023-05-20T21:48:52.151Z,15.40
2023-05-20T21:51:19.016Z,15.30
2023-05-20T21:53:45.865Z,15.30
2023-05-20T21:56:12.836Z,15.20
2023-05-20T21:58:41.692Z,15.20
2023-05-20T22:01:10.238Z,15.20
2023-05-20T22:03:38.289Z,15.20
2023-05-20T22:06:05.893Z,15.20
2023-05-20T22:08:33.950Z,15.20
2023-05-20T22:11:05.547Z,15.20
2023-05-20T22:13:33.653Z,15.20
2023-05-20T22:16:02.035Z,15.20
2023-05-20T22:18:29.417Z,15.10
2023-05-20T22:20:59.239Z,15.10
2023-05-20T22:23:26.824Z,15.10
2023-05-20T22:25:53.950Z,15.10
2023-05-20T22:28:21.330Z,15.10
2023-05-20T22:30:48.170Z,15.10
2023-05-20T22:33:15.080Z,15.00
2023-05-20T22:35:41.921Z,14.90
2023-05-20T22:38:08.742Z,14.90
2023-05-20T22:40:35.560Z,14.90
2023-05-20T22:43:02.443Z,14.80
2023-05-20T22:45:29.312Z,14.90
2023-05-20T22:47:56.157Z,14.80
2023-05-20T22:50:23.983Z,14.80
2023-05-20T22:52:51.025Z,14.70
2023-05-20T22:55:18.045Z,14.70
2023-05-20T22:57:44.862Z,14.70
2023-05-20T23:00:14.130Z,14.70
2023-05-20T23:02:41.700Z,14.60
2023-05-20T23:05:08.940Z,14.60
2023-05-20T23:07:35.786Z,14.50
2023-05-20T23:10:02.720Z,14.50
2023-05-20T23:12:29.558Z,14.50
2023-05-20T23:14:56.423Z,14.40
2023-05-20T23:17:23.239Z,14.40
2023-05-20T23:19:50.124Z,14.30
2023-05-20T23:22:17.392Z,14.40
2023-05-20T23:24:44.447Z,14.30
2023-05-20T23:27:12.525Z,14.30
2023-05-20T23:29:39.730Z,14.30
2023-05-20T23:32:06.893Z,14.20
2023-05-20T23:34:34.054Z,14.20
2023-05-20T23:37:00.885Z,14.10
2023-05-20T23:39:27.768Z,14.00
2023-05-20T23:41:54.628Z,14.10
2023-05-20T23:44:21.410Z,14.00
2023-05-20T23:46:49.668Z,14.10
2023-05-20T23:49:18.518Z,14.00
2023-05-20T23:51:45.540Z,13.90
2023-05-20T23:54:16.339Z,13.90
2023-05-20T23:56:43.189Z,13.80
2023-05-20T23:59:10.001Z,13.80
